createdAt,value
2018-11-04T00:00:30.662Z,7.10
2018-11-04T00:03:03.119Z,7.20
2018-11-04T00:05:35.499Z,7.00
2018-11-04T00:08:07.984Z,7.10
2018-11-04T00:10:40.532Z,7.10
2018-11-04T00:13:13.790Z,7.10
2018-11-04T00:15:46.102Z,7.10
2018-11-04T00:18:18.572Z,7.10
2018-11-04T00:20:50.947Z,7.10
2018-11-04T00:23:23.415Z,7.10
2018-11-04T00:25:55.856Z,7.20
2018-11-04T00:28:28.355Z,7.20
2018-11-04T00:31:00.841Z,7.10
2018-11-04T00:33:33.191Z,7.10
2018-11-04T00:36:05.771Z,7.20
2018-11-04T00:38:38.339Z,7.20
2018-11-04T00:41:10.714Z,7.00
2018-11-04T00:43:43.147Z,7.10
2018-11-04T00:46:15.751Z,7.10
2018-11-04T00:48:48.213Z,7.20
2018-11-04T00:51:23.168Z,7.20
2018-11-04T00:53:55.650Z,7.20
2018-11-04T00:56:28.076Z,7.30
2018-11-04T00:59:00.534Z,7.20
2018-11-04T01:01:33.314Z,7.20
2018-11-04T01:04:05.747Z,7.40
2018-11-04T01:06:38.436Z,7.40
2018-11-04T01:09:10.966Z,7.30
2018-11-04T01:11:44.095Z,7.40
2018-11-04T01:14:17.551Z,7.30
2018-11-04T01:16:50.348Z,7.30
2018-11-04T01:19:22.833Z,7.40
2018-11-04T01:21:55.207Z,7.50
2018-11-04T01:24:27.718Z,7.50
2018-11-04T01:27:00.062Z,7.60
2018-11-04T01:29:32.681Z,7.50
2018-11-04T01:32:05.538Z,7.50
2018-11-04T01:34:38.416Z,7.50
2018-11-04T01:37:10.982Z,7.50
2018-11-04T01:39:45.631Z,7.50
2018-11-04T01:42:18.039Z,7.70
2018-11-04T01:44:50.499Z,7.70
2018-11-04T01:47:22.977Z,7.60
2018-11-04T01:49:55.619Z,7.50
2018-11-04T01:52:28.030Z,7.60
2018-11-04T01:55:00.438Z,7.70
2018-11-04T01:57:32.935Z,7.80
2018-11-04T02:00:09.539Z,7.80
2018-11-04T02:02:42.822Z,7.90
2018-11-04T02:05:15.674Z,7.90
2018-11-04T02:07:48.116Z,7.90
2018-11-04T02:10:20.533Z,7.90
2018-11-04T02:12:53.031Z,7.80
2018-11-04T02:15:25.501Z,7.90
2018-11-04T02:17:57.899Z,7.80
2018-11-04T02:20:30.341Z,7.90
2018-11-04T02:23:02.767Z,7.90
2018-11-04T02:25:35.177Z,7.90
2018-11-04T02:28:07.547Z,7.80
2018-11-04T02:30:40.221Z,7.90
2018-11-04T02:33:12.635Z,8.00
2018-11-04T02:35:45.180Z,8.10
2018-11-04T02:38:17.653Z,8.20
2018-11-04T02:40:50.119Z,8.30
2018-11-04T02:43:22.555Z,8.40
2018-11-04T02:45:55.069Z,8.40
2018-11-04T02:48:27.737Z,8.40
2018-11-04T02:51:00.180Z,8.50
2018-11-04T02:53:34.364Z,8.60
2018-11-04T02:56:06.783Z,8.60
2018-11-04T02:58:39.187Z,8.50
2018-11-04T03:01:11.609Z,8.60
2018-11-04T03:03:44.024Z,8.70
2018-11-04T03:06:16.681Z,8.80
2018-11-04T03:08:49.100Z,8.70
2018-11-04T03:11:21.585Z,8.70
2018-11-04T03:13:54.186Z,8.70
2018-11-04T03:16:26.579Z,8.80
2018-11-04T03:18:58.984Z,8.90
2018-11-04T03:21:31.384Z,8.90
2018-11-04T03:24:03.864Z,8.90
2018-11-04T03:26:36.309Z,8.90
2018-11-04T03:29:08.843Z,8.90
2018-11-04T03:31:41.248Z,9.00
2018-11-04T03:34:13.885Z,9.00
2018-11-04T03:36:46.291Z,9.10
2018-11-04T03:39:18.888Z,9.20
2018-11-04T03:41:51.271Z,9.20
2018-11-04T03:44:23.723Z,9.20
2018-11-04T03:46:56.252Z,9.30
2018-11-04T03:52:01.119Z,9.20
2018-11-04T03:54:33.987Z,9.30
2018-11-04T03:57:06.787Z,9.20
2018-11-04T03:59:39.206Z,9.40
2018-11-04T04:02:11.623Z,9.40
2018-11-04T04:04:44.059Z,9.40
2018-11-04T04:07:16.475Z,9.50
2018-11-04T04:09:48.960Z,9.50
2018-11-04T04:12:21.358Z,9.50
2018-11-04T04:14:54.184Z,9.50
2018-11-04T04:17:26.594Z,9.50
2018-11-04T04:19:58.989Z,9.50
2018-11-04T04:22:31.373Z,9.50
2018-11-04T04:25:04.176Z,9.60
2018-11-04T04:27:36.726Z,9.60
2018-11-04T04:30:10.179Z,9.70
2018-11-04T04:32:42.551Z,9.70
2018-11-04T04:35:15.082Z,9.70
2018-11-04T04:37:47.500Z,9.60
2018-11-04T04:40:19.968Z,9.70
2018-11-04T04:42:52.402Z,9.70
2018-11-04T04:45:24.817Z,9.70
2018-11-04T04:47:57.499Z,9.70
2018-11-04T04:50:29.901Z,9.70
2018-11-04T04:53:02.400Z,9.70
2018-11-04T04:55:34.846Z,9.70
2018-11-04T04:58:07.282Z,9.70
2018-11-04T05:00:39.677Z,9.70
2018-11-04T05:03:12.082Z,9.70
2018-11-04T05:05:44.532Z,9.70
2018-11-04T05:08:16.981Z,9.90
2018-11-04T05:10:49.713Z,9.80
2018-11-04T05:13:22.523Z,9.90
2018-11-04T05:15:54.947Z,9.70
2018-11-04T05:18:27.691Z,9.70
2018-11-04T05:21:00.100Z,9.80
2018-11-04T05:23:32.569Z,9.70
2018-11-04T05:26:05.138Z,9.70
2018-11-04T05:28:37.861Z,9.80
2018-11-04T05:31:10.293Z,9.80
2018-11-04T05:33:42.767Z,9.80
2018-11-04T05:36:15.232Z,9.90
2018-11-04T05:38:47.978Z,9.90
2018-11-04T05:41:20.374Z,9.70
2018-11-04T05:43:52.796Z,9.70
2018-11-04T05:46:25.215Z,9.90
2018-11-04T05:48:57.719Z,9.80
2018-11-04T05:51:30.317Z,9.80
2018-11-04T05:54:02.770Z,9.80
2018-11-04T05:56:35.274Z,9.90
2018-11-04T05:59:07.683Z,9.90
2018-11-04T06:01:40.088Z,10.00
2018-11-04T06:04:12.514Z,10.10
2018-11-04T06:06:44.907Z,9.90
2018-11-04T06:09:17.702Z,10.00
2018-11-04T06:11:50.082Z,10.10
2018-11-04T06:14:22.762Z,10.00
2018-11-04T06:16:55.214Z,10.00
2018-11-04T06:19:27.751Z,10.00
2018-11-04T06:22:00.151Z,10.10
2018-11-04T06:24:32.567Z,10.00
2018-11-04T06:27:05.009Z,10.00
2018-11-04T06:29:37.426Z,9.90
2018-11-04T06:32:10.197Z,10.00
2018-11-04T06:34:42.731Z,10.00
2018-11-04T06:37:15.380Z,9.90
2018-11-04T06:39:47.763Z,10.00
2018-11-04T06:42:20.220Z,10.00
2018-11-04T06:44:52.639Z,10.00
2018-11-04T06:47:25.118Z,10.10
2018-11-04T06:49:57.532Z,10.10
2018-11-04T06:52:29.968Z,10.10
2018-11-04T06:55:02.421Z,10.10
2018-11-04T06:57:34.966Z,10.20
2018-11-04T07:00:09.059Z,10.20
2018-11-04T07:02:41.446Z,10.10
2018-11-04T07:05:13.874Z,10.10
2018-11-04T07:07:46.717Z,10.10
2018-11-04T07:10:19.265Z,10.00
2018-11-04T07:12:51.677Z,10.20
2018-11-04T07:15:24.114Z,10.20
2018-11-04T07:17:57.540Z,10.20
2018-11-04T07:20:30.088Z,10.20
2018-11-04T07:23:02.820Z,10.30
2018-11-04T07:25:35.291Z,10.20
2018-11-04T07:28:07.750Z,10.30
2018-11-04T07:30:40.139Z,10.20
2018-11-04T07:33:12.827Z,10.30
2018-11-04T07:35:45.232Z,10.20
2018-11-04T07:38:17.798Z,10.20
2018-11-04T07:43:22.594Z,10.50
2018-11-04T07:45:55.015Z,10.50
2018-11-04T07:48:27.782Z,10.50
2018-11-04T07:51:00.157Z,10.40
2018-11-04T07:53:32.816Z,10.50
2018-11-04T07:56:05.237Z,10.50
2018-11-04T07:58:37.754Z,10.40
2018-11-04T08:01:10.247Z,10.30
2018-11-04T08:03:42.742Z,10.40
2018-11-04T08:06:15.188Z,10.50
2018-11-04T08:08:47.619Z,10.60
2018-11-04T08:11:20.038Z,10.60
2018-11-04T08:13:52.480Z,10.70
2018-11-04T08:16:24.893Z,10.60
2018-11-04T08:18:58.504Z,10.80
2018-11-04T08:21:31.066Z,10.80
2018-11-04T08:24:03.454Z,10.90
2018-11-04T08:26:35.890Z,10.80
2018-11-04T08:29:08.328Z,10.80
2018-11-04T08:31:40.779Z,10.70
2018-11-04T08:34:13.249Z,10.80
2018-11-04T08:36:45.688Z,10.70
2018-11-04T08:39:18.171Z,10.70
2018-11-04T08:41:50.630Z,10.80
2018-11-04T08:44:23.034Z,10.80
2018-11-04T08:46:55.465Z,10.70
2018-11-04T08:49:27.901Z,10.70
2018-11-04T08:52:00.321Z,10.80
2018-11-04T08:54:32.729Z,10.80
2018-11-04T08:57:05.518Z,10.80
2018-11-04T08:59:38.019Z,10.80
2018-11-04T09:02:10.431Z,10.80
2018-11-04T09:04:42.918Z,10.90
2018-11-04T09:07:15.481Z,11.00
2018-11-04T09:09:48.164Z,11.00
2018-11-04T09:12:20.653Z,10.90
2018-11-04T09:14:53.064Z,10.80
2018-11-04T09:17:25.484Z,10.80
2018-11-04T09:19:58.772Z,10.80
2018-11-04T09:22:31.223Z,10.90
2018-11-04T09:25:03.912Z,10.80
2018-11-04T09:27:37.407Z,10.90
2018-11-04T09:30:12.644Z,10.90
2018-11-04T09:32:45.142Z,10.90
2018-11-04T09:35:17.784Z,10.90
2018-11-04T09:37:50.121Z,10.90
2018-11-04T09:40:22.771Z,11.00
2018-11-04T09:42:55.389Z,11.10
2018-11-04T09:45:27.789Z,11.00
2018-11-04T09:48:00.272Z,11.00
2018-11-04T09:50:32.711Z,11.00
2018-11-04T09:53:05.245Z,11.00
2018-11-04T09:55:39.532Z,10.80
2018-11-04T09:58:12.024Z,11.00
2018-11-04T10:00:44.466Z,11.10
2018-11-04T10:05:49.473Z,11.30
2018-11-04T10:08:22.500Z,11.40
2018-11-04T10:10:55.023Z,11.30
2018-11-04T10:13:27.753Z,11.40
2018-11-04T10:16:00.225Z,11.40
2018-11-04T10:18:32.718Z,11.30
2018-11-04T10:21:05.584Z,11.30
2018-11-04T10:23:38.396Z,11.40
2018-11-04T10:26:10.883Z,11.40
2018-11-04T10:28:43.357Z,11.40
2018-11-04T10:31:16.168Z,11.50
2018-11-04T10:33:48.539Z,11.40
2018-11-04T10:36:21.375Z,11.40
2018-11-04T10:38:54.067Z,11.40
2018-11-04T10:41:26.602Z,11.50
2018-11-04T10:43:59.028Z,11.50
2018-11-04T10:46:31.498Z,11.50
2018-11-04T10:49:04.510Z,11.60
2018-11-04T10:51:36.958Z,11.60
2018-11-04T10:54:09.433Z,11.60
2018-11-04T10:56:41.963Z,11.60
2018-11-04T10:59:14.393Z,11.60
2018-11-04T11:01:46.979Z,11.70
2018-11-04T11:04:19.426Z,11.60
2018-11-04T11:06:51.857Z,11.60
2018-11-04T11:09:25.154Z,11.70
2018-11-04T11:11:57.614Z,11.70
2018-11-04T11:14:30.120Z,11.70
2018-11-04T11:17:02.781Z,11.70
2018-11-04T11:19:36.283Z,11.60
2018-11-04T11:22:08.906Z,11.70
2018-11-04T11:24:41.369Z,11.70
2018-11-04T11:27:13.847Z,11.70
2018-11-04T11:29:46.250Z,11.70
2018-11-04T11:32:18.805Z,11.80
2018-11-04T11:34:51.277Z,11.80
2018-11-04T11:37:24.069Z,11.80
2018-11-04T11:39:56.561Z,11.70
2018-11-04T11:42:30.185Z,11.60
2018-11-04T11:45:02.749Z,11.70
2018-11-04T11:47:35.328Z,11.70
2018-11-04T11:50:08.186Z,11.50
2018-11-04T11:52:40.804Z,11.60
2018-11-04T11:55:13.494Z,11.70
2018-11-04T11:57:46.966Z,11.60
2018-11-04T12:00:19.491Z,11.60
2018-11-04T12:02:53.554Z,11.70
2018-11-04T12:05:26.064Z,11.70
2018-11-04T12:07:59.568Z,11.80
2018-11-04T12:10:32.279Z,11.80
2018-11-04T12:13:04.795Z,11.90
2018-11-04T12:15:37.352Z,11.90
2018-11-04T12:18:09.771Z,11.80
2018-11-04T12:20:42.178Z,11.90
2018-11-04T12:23:14.957Z,11.80
2018-11-04T12:25:47.502Z,11.90
2018-11-04T12:28:20.266Z,11.90
2018-11-04T12:30:52.962Z,11.90
2018-11-04T12:33:25.433Z,11.90
2018-11-04T12:35:57.945Z,12.00
2018-11-04T12:38:30.406Z,12.00
2018-11-04T12:41:02.810Z,12.00
2018-11-04T12:43:35.269Z,11.90
2018-11-04T12:46:11.661Z,11.90
2018-11-04T12:48:44.204Z,11.90
2018-11-04T12:51:16.606Z,11.90
2018-11-04T12:53:49.053Z,11.80
2018-11-04T12:56:21.533Z,11.80
2018-11-04T12:58:54.031Z,11.90
2018-11-04T13:01:26.480Z,11.90
2018-11-04T13:03:59.041Z,11.80
2018-11-04T13:06:36.233Z,11.90
2018-11-04T13:09:08.991Z,12.00
2018-11-04T13:11:41.490Z,11.90
2018-11-04T13:14:13.925Z,11.90
2018-11-04T13:19:18.733Z,11.90
2018-11-04T13:21:51.148Z,12.00
2018-11-04T13:24:25.190Z,12.00
2018-11-04T13:26:57.679Z,12.00
2018-11-04T13:29:30.026Z,11.90
2018-11-04T13:32:02.683Z,11.90
2018-11-04T13:34:35.068Z,12.00
2018-11-04T13:37:07.588Z,12.00
2018-11-04T13:39:40.042Z,12.00
2018-11-04T13:42:12.609Z,12.00
2018-11-04T13:44:45.083Z,12.00
2018-11-04T13:47:17.537Z,12.00
2018-11-04T13:49:49.988Z,12.00
2018-11-04T13:52:22.502Z,12.00
2018-11-04T13:54:54.912Z,11.90
2018-11-04T13:57:27.390Z,12.00
2018-11-04T13:59:59.859Z,12.00
2018-11-04T14:02:32.412Z,12.10
2018-11-04T14:05:05.841Z,12.10
2018-11-04T14:07:38.998Z,12.00
2018-11-04T14:10:13.018Z,12.10
2018-11-04T14:12:45.968Z,12.10
2018-11-04T14:15:18.298Z,12.10
2018-11-04T14:17:50.735Z,12.00
2018-11-04T14:20:23.254Z,12.00
2018-11-04T14:22:55.711Z,12.00
2018-11-04T14:25:28.274Z,12.10
2018-11-04T14:28:00.667Z,12.00
2018-11-04T14:30:33.594Z,12.00
2018-11-04T14:33:05.982Z,11.80
2018-11-04T14:35:38.479Z,11.90
2018-11-04T14:38:10.902Z,11.90
2018-11-04T14:40:43.493Z,11.90
2018-11-04T14:43:15.977Z,11.90
2018-11-04T14:45:48.629Z,11.90
2018-11-04T14:48:21.171Z,11.80
2018-11-04T14:50:53.635Z,11.80
2018-11-04T14:53:26.074Z,11.90
2018-11-04T14:55:58.716Z,11.70
2018-11-04T14:58:31.303Z,11.80
2018-11-04T15:01:03.883Z,11.90
2018-11-04T15:03:36.286Z,11.90
2018-11-04T15:06:08.816Z,11.90
2018-11-04T15:08:41.238Z,11.90
2018-11-04T15:11:13.683Z,11.90
2018-11-04T15:13:46.732Z,11.90
2018-11-04T15:16:19.944Z,11.90
2018-11-04T15:18:52.571Z,11.90
2018-11-04T15:21:24.913Z,11.90
2018-11-04T15:23:57.387Z,11.80
2018-11-04T15:26:30.295Z,11.70
2018-11-04T15:29:04.133Z,11.70
2018-11-04T15:31:36.583Z,11.80
2018-11-04T15:34:09.446Z,11.80
2018-11-04T15:36:41.821Z,11.80
2018-11-04T15:39:14.234Z,11.70
2018-11-04T15:41:46.707Z,11.70
2018-11-04T15:44:19.430Z,11.90
2018-11-04T15:46:52.003Z,11.90
2018-11-04T15:49:24.614Z,12.00
2018-11-04T15:51:57.112Z,12.00
2018-11-04T15:54:29.893Z,11.90
2018-11-04T15:57:08.004Z,11.90
2018-11-04T15:59:41.591Z,11.80
2018-11-04T16:02:14.086Z,11.90
2018-11-04T16:04:46.937Z,12.00
2018-11-04T16:07:19.435Z,12.10
2018-11-04T16:09:52.022Z,12.00
2018-11-04T16:12:24.558Z,12.10
2018-11-04T16:14:57.133Z,12.00
2018-11-04T16:17:29.581Z,12.00
2018-11-04T16:20:02.156Z,12.00
2018-11-04T16:22:34.593Z,12.10
2018-11-04T16:25:07.626Z,12.10
2018-11-04T16:30:14.156Z,12.10
2018-11-04T16:32:46.559Z,12.00
2018-11-04T16:35:19.071Z,12.20
2018-11-04T16:37:51.561Z,12.10
2018-11-04T16:40:23.967Z,12.10
2018-11-04T16:42:56.465Z,12.30
2018-11-04T16:45:28.996Z,12.30
2018-11-04T16:48:01.509Z,12.30
2018-11-04T16:50:33.961Z,12.20
2018-11-04T16:53:06.413Z,12.20
2018-11-04T16:58:11.270Z,12.10
2018-11-04T17:00:43.714Z,12.20
2018-11-04T17:03:16.085Z,12.20
2018-11-04T17:05:48.807Z,12.20
2018-11-04T17:08:21.112Z,12.20
2018-11-04T17:10:53.593Z,12.10
2018-11-04T17:13:26.047Z,12.30
2018-11-04T17:15:58.857Z,12.40
2018-11-04T17:18:31.292Z,12.30
2018-11-04T17:21:03.807Z,12.20
2018-11-04T17:23:36.304Z,12.30
2018-11-04T17:26:08.770Z,12.30
2018-11-04T17:28:42.432Z,12.10
2018-11-04T17:31:14.913Z,12.20
2018-11-04T17:33:47.322Z,12.30
2018-11-04T17:36:19.850Z,12.30
2018-11-04T17:38:52.369Z,12.30
2018-11-04T17:41:24.872Z,12.40
2018-11-04T17:43:57.846Z,12.50
2018-11-04T17:46:30.299Z,12.40
2018-11-04T17:49:02.854Z,12.40
2018-11-04T17:51:35.349Z,12.50
2018-11-04T17:54:08.405Z,12.40
2018-11-04T17:56:40.882Z,12.30
2018-11-04T17:59:13.477Z,12.50
2018-11-04T18:01:45.974Z,12.50
2018-11-04T18:04:18.461Z,12.60
2018-11-04T18:06:51.253Z,12.50
2018-11-04T18:09:25.257Z,12.40
2018-11-04T18:11:57.719Z,12.50
2018-11-04T18:14:30.160Z,12.40
2018-11-04T18:17:02.718Z,12.30
2018-11-04T18:19:35.158Z,12.20
2018-11-04T18:22:07.605Z,12.20
2018-11-04T18:24:40.009Z,12.40
2018-11-04T18:27:12.431Z,12.40
2018-11-04T18:29:45.033Z,12.40
2018-11-04T18:32:17.831Z,12.50
2018-11-04T18:37:23.045Z,12.20
2018-11-04T18:39:55.484Z,12.50
2018-11-04T18:42:28.010Z,12.40
2018-11-04T18:45:00.553Z,12.50
2018-11-04T18:47:33.328Z,12.40
2018-11-04T18:50:06.790Z,12.60
2018-11-04T18:52:39.414Z,12.30
2018-11-04T18:55:12.295Z,12.50
2018-11-04T18:57:44.912Z,12.40
2018-11-04T19:00:18.603Z,12.50
2018-11-04T19:02:51.130Z,12.60
2018-11-04T19:05:24.065Z,12.50
2018-11-04T19:07:56.541Z,12.50
2018-11-04T19:10:29.146Z,12.50
2018-11-04T19:13:01.958Z,12.60
2018-11-04T19:15:34.500Z,12.60
2018-11-04T19:18:07.433Z,12.60
2018-11-04T19:20:40.520Z,12.50
2018-11-04T19:23:13.134Z,12.50
2018-11-04T19:25:45.607Z,12.40
2018-11-04T19:28:18.070Z,12.50
2018-11-04T19:30:50.749Z,12.40
2018-11-04T19:33:23.323Z,12.40
2018-11-04T19:35:55.876Z,12.40
2018-11-04T19:38:28.303Z,12.50
2018-11-04T19:41:00.816Z,12.60
2018-11-04T19:43:33.334Z,12.50
2018-11-04T19:46:05.846Z,12.40
2018-11-04T19:48:38.358Z,12.50
2018-11-04T19:51:10.943Z,12.60
2018-11-04T19:53:43.360Z,12.60
2018-11-04T19:56:15.973Z,12.50
2018-11-04T19:58:48.516Z,12.40
2018-11-04T20:01:21.024Z,12.40
2018-11-04T20:03:53.598Z,12.40
2018-11-04T20:06:26.678Z,12.30
2018-11-04T20:09:04.836Z,12.40
2018-11-04T20:11:37.462Z,12.60
2018-11-04T20:14:15.550Z,12.60
2018-11-04T20:16:49.242Z,12.60
2018-11-04T20:19:27.537Z,12.50
2018-11-04T20:22:00.037Z,12.60
2018-11-04T20:26:44.086Z,12.60
2018-11-04T20:29:17.277Z,12.60
2018-11-04T20:31:55.577Z,12.50
2018-11-04T20:34:28.094Z,12.60
2018-11-04T20:37:00.585Z,12.40
2018-11-04T20:39:38.737Z,12.50
2018-11-04T20:42:11.274Z,12.60
2018-11-04T20:44:43.778Z,12.50
2018-11-04T20:47:16.316Z,12.50
2018-11-04T20:49:54.744Z,12.50
2018-11-04T20:52:27.350Z,12.30
2018-11-04T20:55:00.804Z,12.30
2018-11-04T20:57:53.273Z,12.50
2018-11-04T21:00:25.800Z,12.40
2018-11-04T21:02:58.283Z,12.50
2018-11-04T21:05:30.759Z,12.40
2018-11-04T21:08:03.281Z,12.40
2018-11-04T21:10:35.824Z,12.30
2018-11-04T21:13:08.309Z,12.20
2018-11-04T21:15:40.843Z,12.20
2018-11-04T21:18:13.308Z,12.30
2018-11-04T21:20:45.988Z,12.20
2018-11-04T21:23:18.599Z,12.20
2018-11-04T21:25:51.319Z,12.10
2018-11-04T21:28:23.777Z,12.20
2018-11-04T21:30:56.347Z,12.20
2018-11-04T21:33:28.905Z,12.30
2018-11-04T21:36:01.417Z,12.20
2018-11-04T21:38:33.940Z,12.10
2018-11-04T21:41:06.511Z,12.20
2018-11-04T21:43:39.117Z,12.20
2018-11-04T21:46:11.665Z,12.10
2018-11-04T21:48:44.758Z,12.20
2018-11-04T21:51:17.513Z,12.00
2018-11-04T21:53:50.079Z,12.10
2018-11-04T21:56:22.714Z,12.00
2018-11-04T21:58:57.259Z,12.10
2018-11-04T22:01:29.794Z,12.30
2018-11-04T22:04:02.707Z,12.30
2018-11-04T22:06:35.205Z,12.30
2018-11-04T22:09:08.113Z,12.20
2018-11-04T22:11:40.960Z,12.30
2018-11-04T22:14:13.501Z,12.20
2018-11-04T22:16:46.291Z,12.20
2018-11-04T22:19:18.791Z,12.10
2018-11-04T22:21:51.328Z,12.10
2018-11-04T22:24:23.954Z,12.20
2018-11-04T22:26:56.436Z,12.20
2018-11-04T22:29:28.902Z,12.20
2018-11-04T22:32:01.420Z,12.10
2018-11-04T22:34:34.008Z,12.00
2018-11-04T22:37:06.725Z,12.00
2018-11-04T22:39:39.279Z,12.00
2018-11-04T22:42:12.122Z,12.10
2018-11-04T22:44:44.537Z,12.10
2018-11-04T22:49:51.040Z,11.90
2018-11-04T22:52:23.609Z,12.00
2018-11-04T22:54:56.263Z,12.00
2018-11-04T22:57:28.872Z,11.90
2018-11-04T23:00:02.133Z,12.00
2018-11-04T23:02:34.672Z,11.90
2018-11-04T23:05:12.877Z,12.00
2018-11-04T23:07:45.967Z,11.90
2018-11-04T23:10:18.406Z,11.90
2018-11-04T23:12:51.060Z,11.90
2018-11-04T23:15:23.858Z,12.00
2018-11-04T23:17:56.430Z,11.90
2018-11-04T23:20:28.898Z,11.90
2018-11-04T23:23:01.369Z,11.90
2018-11-04T23:25:33.872Z,12.10
2018-11-04T23:28:06.334Z,12.00
2018-11-04T23:30:39.054Z,12.10
2018-11-04T23:33:11.537Z,12.10
2018-11-04T23:35:44.305Z,12.00
2018-11-04T23:38:16.750Z,12.00
2018-11-04T23:40:49.234Z,12.00
2018-11-04T23:43:21.779Z,12.00
2018-11-04T23:45:54.561Z,12.00
2018-11-04T23:48:26.936Z,12.00
2018-11-04T23:50:59.388Z,12.00
2018-11-04T23:53:32.095Z,12.00
2018-11-04T23:56:06.017Z,12.00
2018-11-04T23:58:38.523Z,12.10
